sensor_id;sensor_type;location;lat;lon;timestamp;pressure;altitude;pressure_sealevel;temperature;humidity
58769;BME280;44536;47.474;19.056;2022-11-24T00:02:51;99427.09;;;4.72;100.00
58769;BME280;44536;47.474;19.056;2022-11-24T00:05:53;99427.44;;;4.67;100.00
58769;BME280;44536;47.474;19.056;2022-11-24T00:08:55;99420.63;;;4.64;100.00
58769;BME280;44536;47.474;19.056;2022-11-24T00:11:58;99423.34;;;4.76;100.00
58769;BME280;44536;47.474;19.056;2022-11-24T00:15:02;99424.19;;;4.76;100.00
58769;BME280;44536;47.474;19.056;2022-11-24T00:18:04;99427.53;;;4.78;100.00
58769;BME280;44536;47.474;19.056;2022-11-24T00:21:06;99428.69;;;4.74;100.00
58769;BME280;44536;47.474;19.056;2022-11-24T00:24:08;99431.00;;;4.79;100.00
58769;BME280;44536;47.474;19.056;2022-11-24T00:27:10;99433.09;;;4.74;100.00
58769;BME280;44536;47.474;19.056;2022-11-24T00:30:13;99434.59;;;4.78;100.00
58769;BME280;44536;47.474;19.056;2022-11-24T00:33:14;99434.88;;;4.73;100.00
58769;BME280;44536;47.474;19.056;2022-11-24T00:36:17;99447.81;;;4.63;100.00
58769;BME280;44536;47.474;19.056;2022-11-24T00:39:19;99446.03;;;4.64;100.00
58769;BME280;44536;47.474;19.056;2022-11-24T00:42:22;99446.53;;;4.69;100.00
58769;BME280;44536;47.474;19.056;2022-11-24T00:45:24;99454.84;;;4.63;100.00
58769;BME280;44536;47.474;19.056;2022-11-24T00:48:26;99460.75;;;4.67;100.00
58769;BME280;44536;47.474;19.056;2022-11-24T00:51:28;99465.84;;;4.68;100.00
58769;BME280;44536;47.474;19.056;2022-11-24T00:54:31;99461.59;;;4.67;100.00
58769;BME280;44536;47.474;19.056;2022-11-24T00:57:34;99465.84;;;4.68;100.00
58769;BME280;44536;47.474;19.056;2022-11-24T01:00:36;99470.31;;;4.68;100.00
58769;BME280;44536;47.474;19.056;2022-11-24T01:03:38;99466.72;;;4.81;100.00
58769;BME280;44536;47.474;19.056;2022-11-24T01:06:40;99469.31;;;4.69;100.00
58769;BME280;44536;47.474;19.056;2022-11-24T01:09:42;99469.47;;;4.67;100.00
58769;BME280;44536;47.474;19.056;2022-11-24T01:12:46;99467.03;;;4.64;100.00
58769;BME280;44536;47.474;19.056;2022-11-24T01:15:48;99474.06;;;4.63;100.00
58769;BME280;44536;47.474;19.056;2022-11-24T01:18:50;99471.53;;;4.62;100.00
58769;BME280;44536;47.474;19.056;2022-11-24T01:21:53;99469.31;;;4.56;100.00
58769;BME280;44536;47.474;19.056;2022-11-24T01:24:55;99475.59;;;4.53;100.00
58769;BME280;44536;47.474;19.056;2022-11-24T01:27:57;99476.44;;;4.54;100.00
58769;BME280;44536;47.474;19.056;2022-11-24T01:31:00;99477.72;;;4.61;100.00
58769;BME280;44536;47.474;19.056;2022-11-24T01:34:02;99478.28;;;4.66;100.00
58769;BME280;44536;47.474;19.056;2022-11-24T01:37:04;99465.66;;;4.58;100.00
58769;BME280;44536;47.474;19.056;2022-11-24T01:40:06;99477.63;;;4.62;100.00
58769;BME280;44536;47.474;19.056;2022-11-24T01:43:16;99476.06;;;4.60;100.00
58769;BME280;44536;47.474;19.056;2022-11-24T01:46:22;99475.75;;;4.64;100.00
58769;BME280;44536;47.474;19.056;2022-11-24T01:49:34;99483.94;;;4.73;100.00
58769;BME280;44536;47.474;19.056;2022-11-24T01:52:39;99483.28;;;4.69;100.00
58769;BME280;44536;47.474;19.056;2022-11-24T01:55:42;99478.78;;;4.58;100.00
58769;BME280;44536;47.474;19.056;2022-11-24T01:58:44;99484.88;;;4.59;100.00
58769;BME280;44536;47.474;19.056;2022-11-24T02:01:49;99481.41;;;4.71;100.00
58769;BME280;44536;47.474;19.056;2022-11-24T02:04:52;99486.56;;;4.73;100.00
58769;BME280;44536;47.474;19.056;2022-11-24T02:07:56;99480.38;;;4.74;100.00
58769;BME280;44536;47.474;19.056;2022-11-24T02:11:01;99477.84;;;4.72;100.00
58769;BME280;44536;47.474;19.056;2022-11-24T02:14:06;99479.84;;;4.69;100.00
58769;BME280;44536;47.474;19.056;2022-11-24T02:17:08;99480.38;;;4.61;100.00
58769;BME280;44536;47.474;19.056;2022-11-24T02:20:11;99484.66;;;4.62;100.00
58769;BME280;44536;47.474;19.056;2022-11-24T02:23:16;99484.38;;;4.67;100.00
58769;BME280;44536;47.474;19.056;2022-11-24T02:29:41;99478.28;;;4.66;100.00
58769;BME280;44536;47.474;19.056;2022-11-24T02:32:44;99481.94;;;4.63;100.00
58769;BME280;44536;47.474;19.056;2022-11-24T02:35:46;99487.84;;;4.67;100.00
58769;BME280;44536;47.474;19.056;2022-11-24T02:38:48;99492.13;;;4.68;100.00
58769;BME280;44536;47.474;19.056;2022-11-24T02:41:51;99490.22;;;4.70;100.00
58769;BME280;44536;47.474;19.056;2022-11-24T02:44:55;99489.81;;;4.63;100.00
58769;BME280;44536;47.474;19.056;2022-11-24T02:47:58;99489.19;;;4.60;100.00
58769;BME280;44536;47.474;19.056;2022-11-24T02:51:01;99493.50;;;4.61;100.00
58769;BME280;44536;47.474;19.056;2022-11-24T02:54:03;99488.34;;;4.59;100.00
58769;BME280;44536;47.474;19.056;2022-11-24T02:57:05;99488.34;;;4.59;100.00
58769;BME280;44536;47.474;19.056;2022-11-24T03:00:07;99491.81;;;4.60;100.00
58769;BME280;44536;47.474;19.056;2022-11-24T03:03:09;99490.22;;;4.57;100.00
58769;BME280;44536;47.474;19.056;2022-11-24T03:06:11;99492.00;;;4.57;100.00
58769;BME280;44536;47.474;19.056;2022-11-24T03:09:14;99495.22;;;4.48;100.00
58769;BME280;44536;47.474;19.056;2022-11-24T03:12:16;99501.06;;;4.39;100.00
58769;BME280;44536;47.474;19.056;2022-11-24T03:15:18;99500.72;;;4.30;100.00
58769;BME280;44536;47.474;19.056;2022-11-24T03:18:20;99502.59;;;4.28;100.00
58769;BME280;44536;47.474;19.056;2022-11-24T03:21:22;99503.72;;;4.24;100.00
58769;BME280;44536;47.474;19.056;2022-11-24T03:24:24;99514.22;;;4.24;100.00
58769;BME280;44536;47.474;19.056;2022-11-24T03:27:26;99520.31;;;4.25;100.00
58769;BME280;44536;47.474;19.056;2022-11-24T03:30:28;99515.06;;;4.25;100.00
58769;BME280;44536;47.474;19.056;2022-11-24T03:33:31;99514.69;;;4.17;100.00
58769;BME280;44536;47.474;19.056;2022-11-24T03:36:33;99525.31;;;4.15;100.00
58769;BME280;44536;47.474;19.056;2022-11-24T03:39:35;99521.00;;;4.14;100.00
58769;BME280;44536;47.474;19.056;2022-11-24T03:42:38;99524.16;;;4.19;100.00
58769;BME280;44536;47.474;19.056;2022-11-24T03:45:43;99521.63;;;4.18;100.00
58769;BME280;44536;47.474;19.056;2022-11-24T03:48:47;99527.72;;;4.18;100.00
58769;BME280;44536;47.474;19.056;2022-11-24T03:51:49;99510.91;;;4.08;100.00
58769;BME280;44536;47.474;19.056;2022-11-24T03:54:52;99522.44;;;4.06;100.00
58769;BME280;44536;47.474;19.056;2022-11-24T03:57:54;99521.19;;;4.11;100.00
58769;BME280;44536;47.474;19.056;2022-11-24T04:00:56;99525.16;;;4.04;100.00
58769;BME280;44536;47.474;19.056;2022-11-24T04:03:58;99529.53;;;4.04;100.00
58769;BME280;44536;47.474;19.056;2022-11-24T04:07:00;99532.38;;;4.01;100.00
58769;BME280;44536;47.474;19.056;2022-11-24T04:10:02;99529.75;;;4.01;100.00
58769;BME280;44536;47.474;19.056;2022-11-24T04:13:09;99529.37;;;3.92;100.00
58769;BME280;44536;47.474;19.056;2022-11-24T04:16:12;99530.41;;;3.90;100.00
58769;BME280;44536;47.474;19.056;2022-11-24T04:19:14;99533.69;;;3.93;100.00
58769;BME280;44536;47.474;19.056;2022-11-24T04:22:16;99535.37;;;3.94;100.00
58769;BME280;44536;47.474;19.056;2022-11-24T04:25:18;99540.50;;;3.96;100.00
58769;BME280;44536;47.474;19.056;2022-11-24T04:28:20;99546.88;;;3.92;100.00
58769;BME280;44536;47.474;19.056;2022-11-24T04:31:22;99550.81;;;3.85;100.00
58769;BME280;44536;47.474;19.056;2022-11-24T04:34:24;99553.44;;;3.85;100.00
58769;BME280;44536;47.474;19.056;2022-11-24T04:37:26;99554.75;;;3.92;100.00
58769;BME280;44536;47.474;19.056;2022-11-24T04:40:29;99563.19;;;3.83;100.00
58769;BME280;44536;47.474;19.056;2022-11-24T04:43:31;99564.31;;;3.93;100.00
58769;BME280;44536;47.474;19.056;2022-11-24T04:46:40;99567.78;;;3.93;100.00
58769;BME280;44536;47.474;19.056;2022-11-24T04:49:42;99579.28;;;3.91;100.00
58769;BME280;44536;47.474;19.056;2022-11-24T04:52:44;99584.44;;;3.78;100.00
58769;BME280;44536;47.474;19.056;2022-11-24T04:55:46;99576.38;;;3.81;100.00
58769;BME280;44536;47.474;19.056;2022-11-24T04:58:48;99583.69;;;3.76;100.00
58769;BME280;44536;47.474;19.056;2022-11-24T05:01:50;99590.72;;;3.76;100.00
58769;BME280;44536;47.474;19.056;2022-11-24T05:04:53;99592.50;;;3.89;100.00
58769;BME280;44536;47.474;19.056;2022-11-24T05:07:55;99595.19;;;3.74;100.00
58769;BME280;44536;47.474;19.056;2022-11-24T05:11:06;99605.69;;;3.74;100.00
58769;BME280;44536;47.474;19.056;2022-11-24T05:14:08;99605.03;;;3.84;100.00
58769;BME280;44536;47.474;19.056;2022-11-24T05:17:11;99615.53;;;3.84;100.00
58769;BME280;44536;47.474;19.056;2022-11-24T05:20:13;99616.38;;;3.85;100.00
58769;BME280;44536;47.474;19.056;2022-11-24T05:23:17;99618.81;;;3.88;100.00
58769;BME280;44536;47.474;19.056;2022-11-24T05:26:19;99620.78;;;3.84;100.00
58769;BME280;44536;47.474;19.056;2022-11-24T05:29:21;99621.91;;;3.94;100.00
58769;BME280;44536;47.474;19.056;2022-11-24T05:32:23;99621.81;;;3.96;100.00
58769;BME280;44536;47.474;19.056;2022-11-24T05:35:25;99626.78;;;4.01;100.00
58769;BME280;44536;47.474;19.056;2022-11-24T05:38:27;99628.56;;;4.00;100.00
58769;BME280;44536;47.474;19.056;2022-11-24T05:41:30;99621.84;;;4.10;100.00
58769;BME280;44536;47.474;19.056;2022-11-24T05:44:32;99634.19;;;4.08;100.00
58769;BME280;44536;47.474;19.056;2022-11-24T05:47:35;99629.88;;;4.07;100.00
58769;BME280;44536;47.474;19.056;2022-11-24T05:50:38;99639.44;;;4.08;100.00
58769;BME280;44536;47.474;19.056;2022-11-24T05:53:41;99650.22;;;4.04;100.00
58769;BME280;44536;47.474;19.056;2022-11-24T05:56:43;99651.06;;;4.04;100.00
58769;BME280;44536;47.474;19.056;2022-11-24T05:59:45;99644.22;;;4.02;100.00
58769;BME280;44536;47.474;19.056;2022-11-24T06:02:47;99642.44;;;4.02;100.00
58769;BME280;44536;47.474;19.056;2022-11-24T06:05:49;99641.31;;;4.06;100.00
58769;BME280;44536;47.474;19.056;2022-11-24T06:08:51;99653.69;;;4.04;100.00
58769;BME280;44536;47.474;19.056;2022-11-24T06:11:53;99646.38;;;4.09;100.00
58769;BME280;44536;47.474;19.056;2022-11-24T06:14:55;99652.47;;;4.10;100.00
58769;BME280;44536;47.474;19.056;2022-11-24T06:17:57;99640.56;;;4.04;100.00
58769;BME280;44536;47.474;19.056;2022-11-24T06:21:01;99635.28;;;4.18;98.76
58769;BME280;44536;47.474;19.056;2022-11-24T06:24:12;99646.25;;;4.25;100.00
58769;BME280;44536;47.474;19.056;2022-11-24T06:27:15;99659.00;;;4.31;100.00
58769;BME280;44536;47.474;19.056;2022-11-24T06:30:17;99657.69;;;4.38;98.77
58769;BME280;44536;47.474;19.056;2022-11-24T06:33:19;99678.69;;;4.38;97.15
58769;BME280;44536;47.474;19.056;2022-11-24T06:36:21;99677.94;;;4.36;97.23
58769;BME280;44536;47.474;19.056;2022-11-24T06:39:24;99677.19;;;4.34;96.97
58769;BME280;44536;47.474;19.056;2022-11-24T06:42:26;99680.75;;;4.33;96.79
58769;BME280;44536;47.474;19.056;2022-11-24T06:45:28;99692.28;;;4.30;98.64
58769;BME280;44536;47.474;19.056;2022-11-24T06:48:30;99696.13;;;4.39;97.59
58769;BME280;44536;47.474;19.056;2022-11-24T06:51:32;99695.28;;;4.39;96.35
58769;BME280;44536;47.474;19.056;2022-11-24T06:54:34;99696.69;;;4.44;96.79
58769;BME280;44536;47.474;19.056;2022-11-24T06:57:37;99711.13;;;4.51;97.70
58769;BME280;44536;47.474;19.056;2022-11-24T07:00:39;99714.78;;;4.49;96.76
58769;BME280;44536;47.474;19.056;2022-11-24T07:03:42;99726.87;;;4.51;96.08
58769;BME280;44536;47.474;19.056;2022-11-24T07:06:45;99724.44;;;4.48;96.00
58769;BME280;44536;47.474;19.056;2022-11-24T07:09:47;99732.13;;;4.51;96.99
58769;BME280;44536;47.474;19.056;2022-11-24T07:12:49;99732.13;;;4.51;94.81
58769;BME280;44536;47.474;19.056;2022-11-24T07:15:51;99741.41;;;4.57;95.74
58769;BME280;44536;47.474;19.056;2022-11-24T07:18:53;99740.59;;;4.56;94.47
58769;BME280;44536;47.474;19.056;2022-11-24T07:21:56;99746.41;;;4.61;93.91
58769;BME280;44536;47.474;19.056;2022-11-24T07:24:58;99750.72;;;4.62;91.54
58769;BME280;44536;47.474;19.056;2022-11-24T07:28:01;99753.06;;;4.67;92.67
58769;BME280;44536;47.474;19.056;2022-11-24T07:31:04;99756.97;;;4.74;91.38
58769;BME280;44536;47.474;19.056;2022-11-24T07:34:07;99757.44;;;4.81;91.87
58769;BME280;44536;47.474;19.056;2022-11-24T07:37:09;99756.78;;;4.91;91.21
58769;BME280;44536;47.474;19.056;2022-11-24T07:40:11;99762.41;;;4.99;89.23
58769;BME280;44536;47.474;19.056;2022-11-24T07:43:14;99764.00;;;5.02;90.42
58769;BME280;44536;47.474;19.056;2022-11-24T07:46:22;99753.75;;;5.12;88.32
58769;BME280;44536;47.474;19.056;2022-11-24T07:49:25;99756.94;;;5.17;89.11
58769;BME280;44536;47.474;19.056;2022-11-24T07:52:27;99774.16;;;5.21;88.52
58769;BME280;44536;47.474;19.056;2022-11-24T07:55:29;99769.47;;;5.26;89.29
58769;BME280;44536;47.474;19.056;2022-11-24T07:58:32;99774.44;;;5.30;87.94
58769;BME280;44536;47.474;19.056;2022-11-24T08:01:35;99767.38;;;5.31;88.46
58769;BME280;44536;47.474;19.056;2022-11-24T08:04:38;99782.88;;;5.36;88.15
58769;BME280;44536;47.474;19.056;2022-11-24T08:07:40;99775.97;;;5.47;88.10
58769;BME280;44536;47.474;19.056;2022-11-24T08:10:42;99774.94;;;5.50;88.82
58769;BME280;44536;47.474;19.056;2022-11-24T08:13:44;99777.09;;;5.57;85.78
58769;BME280;44536;47.474;19.056;2022-11-24T08:16:47;99781.50;;;5.57;86.99
58769;BME280;44536;47.474;19.056;2022-11-24T08:19:49;99771.81;;;5.57;86.65
58769;BME280;44536;47.474;19.056;2022-11-24T08:22:55;99774.59;;;5.69;86.25
58769;BME280;44536;47.474;19.056;2022-11-24T08:25:57;99784.69;;;5.75;85.67
58769;BME280;44536;47.474;19.056;2022-11-24T08:29:04;99798.84;;;5.86;85.10
58769;BME280;44536;47.474;19.056;2022-11-24T08:32:06;99793.88;;;5.82;85.07
58769;BME280;44536;47.474;19.056;2022-11-24T08:35:09;99799.03;;;5.83;83.40
58769;BME280;44536;47.474;19.056;2022-11-24T08:38:15;99803.53;;;5.69;85.64
58769;BME280;44536;47.474;19.056;2022-11-24T08:41:18;99801.03;;;5.80;85.86
58769;BME280;44536;47.474;19.056;2022-11-24T08:44:20;99812.28;;;5.82;84.87
58769;BME280;44536;47.474;19.056;2022-11-24T08:47:22;99821.53;;;5.75;84.63
58769;BME280;44536;47.474;19.056;2022-11-24T08:50:24;99817.94;;;5.63;83.56
58769;BME280;44536;47.474;19.056;2022-11-24T08:53:27;99811.22;;;5.72;85.01
58769;BME280;44536;47.474;19.056;2022-11-24T08:56:31;99816.25;;;5.89;85.57
58769;BME280;44536;47.474;19.056;2022-11-24T08:59:34;99828.31;;;6.06;84.36
58769;BME280;44536;47.474;19.056;2022-11-24T09:02:37;99823.53;;;5.98;82.88
58769;BME280;44536;47.474;19.056;2022-11-24T09:05:39;99830.63;;;5.83;82.85
58769;BME280;44536;47.474;19.056;2022-11-24T09:08:53;99827.13;;;5.70;82.76
58769;BME280;44536;47.474;19.056;2022-11-24T09:11:57;99828.34;;;5.64;83.65
58769;BME280;44536;47.474;19.056;2022-11-24T09:14:58;99826.37;;;5.68;83.70
58769;BME280;44536;47.474;19.056;2022-11-24T09:18:01;99835.03;;;5.83;83.13
58769;BME280;44536;47.474;19.056;2022-11-24T09:24:09;99838.59;;;5.82;83.50
58769;BME280;44536;47.474;19.056;2022-11-24T09:27:11;99829.97;;;5.80;82.26
58769;BME280;44536;47.474;19.056;2022-11-24T09:30:15;99834.66;;;5.89;81.96
58769;BME280;44536;47.474;19.056;2022-11-24T09:33:17;99831.44;;;5.71;83.10
58769;BME280;44536;47.474;19.056;2022-11-24T09:36:20;99839.56;;;6.08;83.25
58769;BME280;44536;47.474;19.056;2022-11-24T09:39:22;99838.25;;;6.27;82.12
58769;BME280;44536;47.474;19.056;2022-11-24T09:43:08;99844.28;;;6.42;80.75
58769;BME280;44536;47.474;19.056;2022-11-24T09:45:56;99842.31;;;6.58;79.28
58769;BME280;44536;47.474;19.056;2022-11-24T09:49:10;99840.50;;;6.84;78.42
58769;BME280;44536;47.474;19.056;2022-11-24T09:52:15;99841.44;;;6.96;76.60
58769;BME280;44536;47.474;19.056;2022-11-24T09:58:44;99829.53;;;7.03;76.88
58769;BME280;44536;47.474;19.056;2022-11-24T10:01:52;99836.47;;;7.17;75.99
58769;BME280;44536;47.474;19.056;2022-11-24T10:04:56;99839.44;;;7.12;78.10
58769;BME280;44536;47.474;19.056;2022-11-24T10:11:01;99842.41;;;6.57;77.69
58769;BME280;44536;47.474;19.056;2022-11-24T10:17:24;99839.25;;;6.52;78.88
58769;BME280;44536;47.474;19.056;2022-11-24T10:23:49;99840.25;;;6.37;81.58
58769;BME280;44536;47.474;19.056;2022-11-24T10:27:01;99835.09;;;6.35;81.16
58769;BME280;44536;47.474;19.056;2022-11-24T10:30:39;99843.03;;;6.48;80.77
58769;BME280;44536;47.474;19.056;2022-11-24T10:33:33;99837.62;;;6.37;81.67
58769;BME280;44536;47.474;19.056;2022-11-24T10:36:43;99843.31;;;6.43;80.71
58769;BME280;44536;47.474;19.056;2022-11-24T10:43:02;99853.72;;;6.32;81.32
58769;BME280;44536;47.474;19.056;2022-11-24T10:46:20;99852.34;;;6.26;82.70
58769;BME280;44536;47.474;19.056;2022-11-24T10:49:26;99852.62;;;6.49;81.25
58769;BME280;44536;47.474;19.056;2022-11-24T10:52:29;99854.13;;;6.66;82.53
58769;BME280;44536;47.474;19.056;2022-11-24T10:58:54;99870.34;;;6.72;79.97
58769;BME280;44536;47.474;19.056;2022-11-24T11:01:59;99868.97;;;6.79;80.13
58769;BME280;44536;47.474;19.056;2022-11-24T11:11:28;99878.69;;;7.04;77.93
58769;BME280;44536;47.474;19.056;2022-11-24T11:14:31;99888.59;;;7.13;76.60
58769;BME280;44536;47.474;19.056;2022-11-24T11:17:35;99873.94;;;7.09;78.47
58769;BME280;44536;47.474;19.056;2022-11-24T11:20:39;99888.59;;;7.26;77.31
58769;BME280;44536;47.474;19.056;2022-11-24T11:23:41;99886.91;;;7.25;75.39
58769;BME280;44536;47.474;19.056;2022-11-24T11:26:45;99894.22;;;7.45;74.86
58769;BME280;44536;47.474;19.056;2022-11-24T11:29:47;99892.97;;;7.38;75.38
58769;BME280;44536;47.474;19.056;2022-11-24T11:33:18;99883.44;;;7.61;75.07
58769;BME280;44536;47.474;19.056;2022-11-24T11:36:42;99893.34;;;7.70;74.80
58769;BME280;44536;47.474;19.056;2022-11-24T11:39:52;99897.97;;;7.79;73.23
58769;BME280;44536;47.474;19.056;2022-11-24T11:46:15;99899.44;;;8.07;71.73
58769;BME280;44536;47.474;19.056;2022-11-24T11:49:18;99900.66;;;7.90;72.50
58769;BME280;44536;47.474;19.056;2022-11-24T11:55:36;99901.41;;;8.16;72.29
58769;BME280;44536;47.474;19.056;2022-11-24T12:04:59;99896.63;;;8.80;71.48
58769;BME280;44536;47.474;19.056;2022-11-24T12:11:25;99894.78;;;8.70;71.67
58769;BME280;44536;47.474;19.056;2022-11-24T12:14:31;99885.59;;;9.65;68.01
58769;BME280;44536;47.474;19.056;2022-11-24T12:30:30;99896.38;;;8.83;70.15
58769;BME280;44536;47.474;19.056;2022-11-24T12:40:13;99890.84;;;8.40;71.90
58769;BME280;44536;47.474;19.056;2022-11-24T12:46:50;99897.72;;;7.46;76.18
58769;BME280;44536;47.474;19.056;2022-11-24T12:50:02;99913.53;;;7.46;75.58
58769;BME280;44536;47.474;19.056;2022-11-24T12:56:14;99910.53;;;7.14;77.89
58769;BME280;44536;47.474;19.056;2022-11-24T13:02:50;99925.28;;;7.16;77.90
58769;BME280;44536;47.474;19.056;2022-11-24T13:06:10;99919.50;;;7.24;78.02
58769;BME280;44536;47.474;19.056;2022-11-24T13:09:14;99918.22;;;7.17;77.96
58769;BME280;44536;47.474;19.056;2022-11-24T13:12:19;99925.37;;;7.02;79.27
58769;BME280;44536;47.474;19.056;2022-11-24T13:15:22;99927.16;;;7.02;79.63
58769;BME280;44536;47.474;19.056;2022-11-24T13:18:46;99941.72;;;6.94;80.10
58769;BME280;44536;47.474;19.056;2022-11-24T13:35:13;99938.03;;;7.10;80.61
58769;BME280;44536;47.474;19.056;2022-11-24T13:41:58;99941.59;;;7.34;78.89
58769;BME280;44536;47.474;19.056;2022-11-24T13:45:02;99956.91;;;7.29;79.73
58769;BME280;44536;47.474;19.056;2022-11-24T13:51:23;99950.56;;;7.44;80.33
58769;BME280;44536;47.474;19.056;2022-11-24T13:54:26;99949.41;;;7.36;81.04
58769;BME280;44536;47.474;19.056;2022-11-24T13:57:37;99956.06;;;7.28;81.53
58769;BME280;44536;47.474;19.056;2022-11-24T14:07:32;99962.41;;;7.26;80.95
58769;BME280;44536;47.474;19.056;2022-11-24T14:10:36;99978.25;;;7.26;80.91
58769;BME280;44536;47.474;19.056;2022-11-24T14:13:38;99973.19;;;7.23;81.44
58769;BME280;44536;47.474;19.056;2022-11-24T14:16:41;99973.91;;;7.25;81.42
58769;BME280;44536;47.474;19.056;2022-11-24T14:19:44;99986.44;;;7.34;81.66
58769;BME280;44536;47.474;19.056;2022-11-24T14:22:47;99995.63;;;7.28;81.93
58769;BME280;44536;47.474;19.056;2022-11-24T14:25:49;99986.88;;;7.15;82.46
58769;BME280;44536;47.474;19.056;2022-11-24T14:28:52;99990.53;;;7.00;83.64
58769;BME280;44536;47.474;19.056;2022-11-24T14:31:58;99985.97;;;6.89;84.77
58769;BME280;44536;47.474;19.056;2022-11-24T14:35:01;99991.78;;;6.94;85.88
58769;BME280;44536;47.474;19.056;2022-11-24T14:38:03;99987.53;;;6.79;86.15
58769;BME280;44536;47.474;19.056;2022-11-24T14:41:17;99993.75;;;6.78;86.75
58769;BME280;44536;47.474;19.056;2022-11-24T14:44:24;100009.38;;;6.81;86.40
58769;BME280;44536;47.474;19.056;2022-11-24T14:47:27;100010.94;;;6.71;86.79
58769;BME280;44536;47.474;19.056;2022-11-24T14:50:33;100009.44;;;6.67;87.23
58769;BME280;44536;47.474;19.056;2022-11-24T14:53:35;100020.28;;;6.62;86.59
58769;BME280;44536;47.474;19.056;2022-11-24T14:56:37;100022.81;;;6.64;86.36
58769;BME280;44536;47.474;19.056;2022-11-24T14:59:40;100037.22;;;6.58;86.71
58769;BME280;44536;47.474;19.056;2022-11-24T15:03:25;100033.50;;;6.48;87.15
58769;BME280;44536;47.474;19.056;2022-11-24T15:06:10;100043.47;;;6.43;86.96
58769;BME280;44536;47.474;19.056;2022-11-24T15:09:17;100048.69;;;6.30;87.92
58769;BME280;44536;47.474;19.056;2022-11-24T15:12:25;100057.81;;;6.25;88.02
58769;BME280;44536;47.474;19.056;2022-11-24T15:15:34;100049.91;;;6.25;87.87
58769;BME280;44536;47.474;19.056;2022-11-24T15:18:41;100053.81;;;6.19;88.23
58769;BME280;44536;47.474;19.056;2022-11-24T15:21:43;100062.19;;;6.12;88.40
58769;BME280;44536;47.474;19.056;2022-11-24T15:24:50;100057.84;;;6.11;88.22
58769;BME280;44536;47.474;19.056;2022-11-24T15:27:54;100060.78;;;6.06;88.12
58769;BME280;44536;47.474;19.056;2022-11-24T15:31:03;100062.94;;;6.00;88.64
58769;BME280;44536;47.474;19.056;2022-11-24T15:34:06;100068.75;;;6.05;88.42
58769;BME280;44536;47.474;19.056;2022-11-24T15:37:08;100061.72;;;6.05;87.73
58769;BME280;44536;47.474;19.056;2022-11-24T15:40:10;100065.00;;;5.94;88.35
58769;BME280;44536;47.474;19.056;2022-11-24T15:46:27;100077.66;;;5.59;91.06
58769;BME280;44536;47.474;19.056;2022-11-24T15:49:30;100074.72;;;5.50;91.86
58769;BME280;44536;47.474;19.056;2022-11-24T15:52:33;100075.09;;;5.44;92.62
58769;BME280;44536;47.474;19.056;2022-11-24T15:55:35;100083.97;;;5.27;93.56
58769;BME280;44536;47.474;19.056;2022-11-24T15:58:37;100079.47;;;5.29;93.13
58769;BME280;44536;47.474;19.056;2022-11-24T16:01:39;100086.12;;;5.35;93.11
58769;BME280;44536;47.474;19.056;2022-11-24T16:04:43;100097.22;;;5.40;92.67
58769;BME280;44536;47.474;19.056;2022-11-24T16:07:46;100092.16;;;5.37;93.64
58769;BME280;44536;47.474;19.056;2022-11-24T16:10:51;100099.84;;;5.40;93.01
58769;BME280;44536;47.474;19.056;2022-11-24T16:13:53;100094.56;;;5.25;94.27
58769;BME280;44536;47.474;19.056;2022-11-24T16:16:55;100100.03;;;5.37;93.55
58769;BME280;44536;47.474;19.056;2022-11-24T16:19:57;100098.06;;;5.40;92.86
58769;BME280;44536;47.474;19.056;2022-11-24T16:23:02;100097.09;;;5.27;93.89
58769;BME280;44536;47.474;19.056;2022-11-24T16:26:05;100100.41;;;5.30;93.93
58769;BME280;44536;47.474;19.056;2022-11-24T16:29:10;100109.47;;;5.25;94.29
58769;BME280;44536;47.474;19.056;2022-11-24T16:32:12;100099.81;;;5.25;94.51
58769;BME280;44536;47.474;19.056;2022-11-24T16:35:14;100104.22;;;5.25;94.88
58769;BME280;44536;47.474;19.056;2022-11-24T16:38:19;100104.56;;;5.05;95.39
58769;BME280;44536;47.474;19.056;2022-11-24T16:41:21;100111.25;;;4.94;96.91
58769;BME280;44536;47.474;19.056;2022-11-24T16:44:23;100103.97;;;4.84;97.61
58769;BME280;44536;47.474;19.056;2022-11-24T16:47:25;100102.84;;;5.04;96.50
58769;BME280;44536;47.474;19.056;2022-11-24T16:50:28;100109.47;;;5.11;96.26
58769;BME280;44536;47.474;19.056;2022-11-24T16:53:30;100120.81;;;5.11;96.22
58769;BME280;44536;47.474;19.056;2022-11-24T16:56:32;100119.25;;;5.23;95.02
58769;BME280;44536;47.474;19.056;2022-11-24T16:59:34;100101.69;;;5.23;94.88
58769;BME280;44536;47.474;19.056;2022-11-24T17:02:37;100119.53;;;5.18;95.16
58769;BME280;44536;47.474;19.056;2022-11-24T17:05:39;100113.38;;;5.04;96.41
58769;BME280;44536;47.474;19.056;2022-11-24T17:08:41;100121.34;;;5.02;96.23
58769;BME280;44536;47.474;19.056;2022-11-24T17:11:44;100123.72;;;5.07;95.78
58769;BME280;44536;47.474;19.056;2022-11-24T17:14:46;100128.13;;;5.06;96.03
58769;BME280;44536;47.474;19.056;2022-11-24T17:18:08;100133.56;;;4.87;97.24
58769;BME280;44536;47.474;19.056;2022-11-24T17:21:26;100133.97;;;4.95;97.48
58769;BME280;44536;47.474;19.056;2022-11-24T17:24:29;100140.00;;;4.97;96.86
58769;BME280;44536;47.474;19.056;2022-11-24T17:27:33;100147.72;;;4.85;98.21
58769;BME280;44536;47.474;19.056;2022-11-24T17:30:36;100145.69;;;4.90;97.33
58769;BME280;44536;47.474;19.056;2022-11-24T17:33:38;100149.09;;;4.60;99.75
58769;BME280;44536;47.474;19.056;2022-11-24T17:36:41;100152.72;;;4.42;100.00
58769;BME280;44536;47.474;19.056;2022-11-24T17:39:45;100157.72;;;4.62;100.00
58769;BME280;44536;47.474;19.056;2022-11-24T17:43:07;100161.09;;;4.80;98.26
58769;BME280;44536;47.474;19.056;2022-11-24T17:46:09;100166.00;;;4.71;98.89
58769;BME280;44536;47.474;19.056;2022-11-24T17:49:12;100159.75;;;4.57;99.90
58769;BME280;44536;47.474;19.056;2022-11-24T17:52:15;100171.34;;;4.69;99.11
58769;BME280;44536;47.474;19.056;2022-11-24T17:55:18;100177.00;;;4.46;100.00
58769;BME280;44536;47.474;19.056;2022-11-24T17:58:20;100185.91;;;4.43;100.00